createdAt,value
2023-03-13T00:00:36.932Z,5.85
2023-03-13T00:01:43.842Z,3.39
2023-03-13T00:02:46.810Z,6.42
2023-03-13T00:03:49.421Z,4.51
2023-03-13T00:04:51.523Z,4.79
2023-03-13T00:05:58.427Z,3.01
2023-03-13T00:07:01.400Z,3.23
2023-03-13T00:08:03.864Z,3.31
2023-03-13T00:09:09.449Z,3.61
2023-03-13T00:10:11.669Z,4.83
2023-03-13T00:11:14.741Z,3.71
2023-03-13T00:12:16.654Z,3.45
2023-03-13T00:13:18.519Z,3.77
2023-03-13T00:14:20.424Z,2.79
2023-03-13T00:15:22.460Z,2.76
2023-03-13T00:16:26.242Z,2.69
2023-03-13T00:17:28.318Z,3.04
2023-03-13T00:18:30.468Z,4.17
2023-03-13T00:19:32.335Z,2.32
2023-03-13T00:20:34.532Z,3.55
2023-03-13T00:21:38.252Z,2.67
2023-03-13T00:22:40.237Z,3.88
2023-03-13T00:23:43.316Z,4.31
2023-03-13T00:24:46.293Z,3.20
2023-03-13T00:25:48.280Z,2.55
2023-03-13T00:26:50.366Z,3.79
2023-03-13T00:27:52.256Z,4.00
2023-03-13T00:28:54.607Z,4.73
2023-03-13T00:29:57.706Z,3.97
2023-03-13T00:31:21.448Z,2.61
2023-03-13T00:32:23.734Z,2.95
2023-03-13T00:33:25.739Z,3.60
2023-03-13T00:34:27.629Z,2.73
2023-03-13T00:35:29.672Z,2.75
2023-03-13T00:36:34.806Z,4.09
2023-03-13T00:37:37.490Z,4.81
2023-03-13T00:38:39.806Z,3.68
2023-03-13T00:39:42.052Z,2.33
2023-03-13T00:40:44.050Z,3.96
2023-03-13T00:41:46.194Z,5.09
2023-03-13T00:42:48.473Z,2.36
2023-03-13T00:43:51.592Z,3.21
2023-03-13T00:44:53.506Z,5.32
2023-03-13T00:45:55.681Z,4.66
2023-03-13T00:46:58.034Z,3.51
2023-03-13T00:47:59.987Z,3.00
2023-03-13T00:49:03.137Z,2.71
2023-03-13T00:50:06.393Z,2.39
2023-03-13T00:51:09.119Z,3.06
2023-03-13T00:52:11.180Z,2.64
2023-03-13T00:53:13.154Z,2.84
2023-03-13T00:54:15.077Z,3.50
2023-03-13T00:55:17.167Z,3.13
2023-03-13T00:56:21.590Z,2.77
2023-03-13T00:57:23.600Z,3.36
2023-03-13T00:58:27.866Z,3.21
2023-03-13T00:59:32.557Z,3.02
2023-03-13T01:00:34.692Z,4.54
2023-03-13T01:01:36.571Z,3.53
2023-03-13T01:02:43.131Z,3.91
2023-03-13T01:03:48.911Z,4.45
2023-03-13T01:04:51.056Z,3.89
2023-03-13T01:05:58.345Z,7.14
2023-03-13T01:07:00.849Z,6.12
2023-03-13T01:08:03.142Z,9.10
2023-03-13T01:09:07.554Z,13.23
2023-03-13T01:10:11.799Z,11.34
2023-03-13T01:11:21.379Z,11.01
2023-03-13T01:12:23.452Z,15.56
2023-03-13T01:13:26.034Z,13.43
2023-03-13T01:14:28.565Z,7.61
2023-03-13T01:15:33.500Z,10.78
2023-03-13T01:16:36.598Z,7.31
2023-03-13T01:17:38.621Z,17.05
2023-03-13T01:18:44.392Z,14.86
2023-03-13T01:19:46.421Z,14.67
2023-03-13T01:20:48.873Z,15.10
2023-03-13T01:21:51.662Z,10.49
2023-03-13T01:22:53.560Z,8.16
2023-03-13T01:23:57.616Z,7.81
2023-03-13T01:24:59.665Z,9.09
2023-03-13T01:26:07.161Z,9.38
2023-03-13T01:27:09.199Z,10.68
2023-03-13T01:28:11.182Z,7.09
2023-03-13T01:29:13.929Z,4.18
2023-03-13T01:30:17.208Z,10.10
2023-03-13T01:31:24.729Z,21.98
2023-03-13T01:32:26.876Z,11.02
2023-03-13T01:33:28.798Z,9.37
2023-03-13T01:34:30.669Z,7.35
2023-03-13T01:35:35.594Z,6.44
2023-03-13T01:36:37.986Z,13.10
2023-03-13T01:37:40.082Z,22.47
2023-03-13T01:38:43.126Z,10.81
2023-03-13T01:39:45.003Z,9.85
2023-03-13T01:40:48.660Z,9.28
2023-03-13T01:41:50.673Z,8.04
2023-03-13T01:42:55.046Z,7.89
2023-03-13T01:43:59.175Z,6.27
2023-03-13T01:45:01.758Z,6.49
2023-03-13T01:46:08.991Z,4.68
2023-03-13T01:47:11.132Z,5.48
2023-03-13T01:48:13.351Z,8.39
2023-03-13T01:49:28.320Z,9.27
2023-03-13T01:50:30.920Z,5.07
2023-03-13T01:51:45.586Z,6.55
2023-03-13T01:52:47.911Z,5.07
2023-03-13T01:53:56.134Z,5.54
2023-03-13T01:57:36.757Z,7.74
2023-03-13T01:58:39.005Z,8.42
2023-03-13T01:59:50.763Z,5.11
2023-03-13T02:00:54.802Z,6.15
2023-03-13T02:02:00.528Z,13.10
2023-03-13T02:03:06.508Z,10.53
2023-03-13T02:04:09.181Z,6.36
2023-03-13T02:05:13.673Z,8.56
2023-03-13T02:06:17.586Z,8.18
2023-03-13T02:07:29.171Z,10.19
2023-03-13T02:08:35.503Z,6.43
2023-03-13T02:09:41.171Z,7.37
2023-03-13T02:10:46.947Z,6.16
2023-03-13T02:12:04.496Z,7.17
2023-03-13T02:13:06.593Z,8.14
2023-03-13T02:14:09.545Z,7.99
2023-03-13T02:15:15.309Z,8.29
2023-03-13T02:16:19.922Z,7.32
2023-03-13T02:17:27.243Z,7.04
2023-03-13T02:18:30.018Z,9.11
2023-03-13T02:19:46.964Z,4.78
2023-03-13T02:20:51.910Z,4.71
2023-03-13T02:22:09.772Z,6.79
2023-03-13T02:23:20.210Z,6.39
2023-03-13T02:24:28.905Z,7.92
2023-03-13T02:25:38.250Z,17.39
2023-03-13T02:26:40.843Z,12.54
2023-03-13T02:27:45.456Z,7.97
2023-03-13T02:28:47.630Z,5.18
2023-03-13T02:29:51.386Z,4.55
2023-03-13T02:30:55.517Z,4.15
2023-03-13T02:31:58.742Z,5.32
2023-03-13T02:33:04.100Z,12.49
2023-03-13T02:34:06.663Z,11.41
2023-03-13T02:35:12.544Z,6.92
2023-03-13T02:36:17.200Z,6.34
2023-03-13T02:37:21.212Z,6.03
2023-03-13T02:38:26.351Z,7.65
2023-03-13T02:39:31.015Z,3.66
2023-03-13T02:40:39.800Z,3.36
2023-03-13T02:41:43.831Z,3.72
2023-03-13T02:42:49.558Z,4.80
2023-03-13T02:43:51.948Z,4.92
2023-03-13T02:44:54.241Z,3.45
2023-03-13T02:46:05.947Z,5.02
2023-03-13T02:47:08.204Z,5.23
2023-03-13T02:48:10.183Z,6.60
2023-03-13T02:49:28.094Z,4.89
2023-03-13T02:50:33.443Z,5.64
2023-03-13T02:51:39.135Z,4.77
2023-03-13T02:52:44.789Z,6.34
2023-03-13T02:53:53.176Z,4.06
2023-03-13T02:54:58.900Z,3.76
2023-03-13T02:56:02.548Z,4.27
2023-03-13T02:57:05.662Z,5.24
2023-03-13T02:58:10.048Z,4.02
2023-03-13T02:59:12.083Z,10.32
2023-03-13T03:00:15.785Z,4.82
2023-03-13T03:01:18.027Z,3.39
2023-03-13T03:02:21.241Z,4.20
2023-03-13T03:03:23.184Z,2.59
2023-03-13T03:04:27.170Z,2.89
2023-03-13T03:05:29.183Z,3.68
2023-03-13T03:06:31.509Z,4.22
2023-03-13T03:07:33.648Z,1.83
2023-03-13T03:08:35.806Z,3.57
2023-03-13T03:09:37.669Z,1.71
2023-03-13T03:10:40.040Z,2.69
2023-03-13T03:11:44.440Z,2.58
2023-03-13T03:12:46.394Z,2.88
2023-03-13T03:13:48.504Z,3.30
2023-03-13T03:14:50.484Z,2.87
2023-03-13T03:15:52.599Z,4.62
2023-03-13T03:16:54.953Z,3.33
2023-03-13T03:17:58.067Z,1.86
2023-03-13T03:19:00.236Z,3.30
2023-03-13T03:20:03.156Z,3.99
2023-03-13T03:21:06.958Z,2.36
2023-03-13T03:22:09.887Z,2.95
2023-03-13T03:23:12.015Z,3.61
2023-03-13T03:24:13.900Z,2.76
2023-03-13T03:25:16.988Z,2.63
2023-03-13T03:26:19.467Z,2.37
2023-03-13T03:27:21.328Z,3.41
2023-03-13T03:28:23.231Z,2.79
2023-03-13T03:29:25.689Z,2.33
2023-03-13T03:30:27.799Z,2.09
2023-03-13T03:31:31.082Z,2.53
2023-03-13T03:32:33.181Z,2.98
2023-03-13T03:33:36.347Z,3.04
2023-03-13T03:34:38.583Z,2.66
2023-03-13T03:35:40.552Z,4.67
2023-03-13T03:36:42.588Z,3.57
2023-03-13T03:37:44.464Z,6.03
2023-03-13T03:38:46.770Z,3.71
2023-03-13T03:39:48.675Z,5.47
2023-03-13T03:40:50.651Z,5.63
2023-03-13T03:41:52.517Z,5.81
2023-03-13T03:42:54.391Z,6.45
2023-03-13T03:43:56.589Z,9.45
2023-03-13T03:44:58.586Z,8.49
2023-03-13T03:46:02.627Z,6.08
2023-03-13T03:47:04.909Z,7.85
2023-03-13T03:48:06.890Z,8.27
2023-03-13T03:49:08.922Z,8.53
2023-03-13T03:50:11.085Z,9.00
2023-03-13T03:51:13.821Z,11.11
2023-03-13T03:52:15.711Z,10.77
2023-03-13T03:53:17.701Z,11.53
2023-03-13T03:54:19.596Z,12.57
2023-03-13T03:55:21.466Z,13.49
2023-03-13T03:56:23.499Z,16.31
2023-03-13T03:57:25.414Z,24.61
2023-03-13T03:58:28.376Z,22.54
2023-03-13T03:59:30.756Z,18.58
2023-03-13T04:00:33.208Z,15.75
2023-03-13T04:01:35.241Z,14.83
2023-03-13T04:02:38.774Z,12.64
2023-03-13T04:03:40.875Z,10.84
2023-03-13T04:04:42.934Z,7.95
2023-03-13T04:05:44.802Z,12.08
2023-03-13T04:06:47.030Z,9.24
2023-03-13T04:07:49.012Z,6.57
2023-03-13T04:08:50.889Z,4.78
2023-03-13T04:09:52.755Z,5.05
2023-03-13T04:10:54.743Z,5.06
2023-03-13T04:11:56.632Z,6.25
2023-03-13T04:12:58.525Z,6.19
2023-03-13T04:14:00.408Z,7.85
2023-03-13T04:15:03.253Z,8.25
2023-03-13T04:16:10.888Z,6.78
2023-03-13T04:17:13.270Z,5.28
2023-03-13T04:18:15.262Z,6.62
2023-03-13T04:19:17.173Z,6.10
2023-03-13T04:20:19.390Z,4.47
2023-03-13T04:21:22.813Z,3.46
2023-03-13T04:22:25.127Z,3.69
2023-03-13T04:23:28.559Z,5.19
2023-03-13T04:24:31.847Z,5.84
2023-03-13T04:25:35.224Z,4.64
2023-03-13T04:26:37.380Z,5.29
2023-03-13T04:27:39.605Z,6.28
2023-03-13T04:28:41.599Z,10.35
2023-03-13T04:29:43.797Z,12.25
2023-03-13T04:30:45.976Z,13.53
2023-03-13T04:31:48.039Z,15.22
2023-03-13T04:32:50.052Z,11.24
2023-03-13T04:33:52.032Z,13.90
2023-03-13T04:34:53.966Z,16.01
2023-03-13T04:35:56.010Z,16.58
2023-03-13T04:36:58.668Z,13.31
2023-03-13T04:38:01.593Z,14.80
2023-03-13T04:39:03.991Z,12.79
2023-03-13T04:40:07.629Z,12.81
2023-03-13T04:41:09.854Z,9.43
2023-03-13T04:42:12.098Z,11.09
2023-03-13T04:43:14.569Z,14.69
2023-03-13T04:44:16.601Z,34.07
2023-03-13T04:45:19.933Z,40.22
2023-03-13T04:46:22.840Z,39.53
2023-03-13T04:47:24.986Z,31.87
2023-03-13T04:48:27.410Z,24.01
2023-03-13T04:49:29.778Z,16.37
2023-03-13T04:50:32.013Z,15.30
2023-03-13T04:51:34.029Z,24.23
2023-03-13T04:52:36.059Z,22.75
2023-03-13T04:53:38.673Z,21.06
2023-03-13T04:54:40.765Z,13.21
2023-03-13T04:55:43.303Z,14.29
2023-03-13T04:56:46.976Z,12.87
2023-03-13T04:57:49.239Z,11.57
2023-03-13T04:58:51.808Z,13.61
2023-03-13T04:59:53.722Z,14.07
2023-03-13T05:00:56.079Z,12.93
2023-03-13T05:01:58.111Z,16.17
2023-03-13T05:03:00.008Z,12.40
2023-03-13T05:04:02.938Z,12.07
2023-03-13T05:05:05.252Z,12.63
2023-03-13T05:06:08.998Z,11.92
2023-03-13T05:07:11.034Z,13.32
2023-03-13T05:08:13.227Z,10.43
2023-03-13T05:09:15.101Z,9.99
2023-03-13T05:10:17.415Z,10.37
2023-03-13T05:11:19.437Z,11.33
2023-03-13T05:12:21.446Z,12.74
2023-03-13T05:13:23.499Z,10.21
2023-03-13T05:14:26.760Z,9.21
2023-03-13T05:15:28.800Z,10.78
2023-03-13T05:16:31.040Z,9.05
2023-03-13T05:17:33.151Z,10.80
2023-03-13T05:18:35.104Z,11.12
2023-03-13T05:19:38.260Z,12.01
2023-03-13T05:20:40.471Z,10.72
2023-03-13T05:21:43.544Z,10.48
2023-03-13T05:22:45.588Z,11.89
2023-03-13T05:23:47.532Z,13.75
2023-03-13T05:24:49.407Z,12.19
2023-03-13T05:25:51.837Z,14.56
2023-03-13T05:26:54.685Z,16.52
2023-03-13T05:27:58.767Z,19.18
2023-03-13T05:29:01.273Z,28.62
2023-03-13T05:30:04.511Z,37.75
2023-03-13T05:31:06.612Z,35.34
2023-03-13T05:32:08.953Z,24.17
2023-03-13T05:33:11.105Z,19.57
2023-03-13T05:34:13.077Z,19.21
2023-03-13T05:35:14.966Z,29.07
2023-03-13T05:36:17.070Z,18.93
2023-03-13T05:37:19.216Z,19.07
2023-03-13T05:38:21.452Z,19.04
2023-03-13T05:39:23.844Z,32.28
2023-03-13T05:40:25.942Z,27.70
2023-03-13T05:41:27.841Z,17.69
2023-03-13T05:42:29.735Z,12.74
2023-03-13T05:43:31.732Z,12.16
2023-03-13T05:44:33.810Z,12.49
2023-03-13T05:45:36.926Z,15.17
2023-03-13T05:46:39.107Z,15.24
2023-03-13T05:47:41.405Z,17.43
2023-03-13T05:48:43.317Z,13.84
2023-03-13T05:49:45.185Z,13.83
2023-03-13T05:50:47.392Z,12.43
2023-03-13T05:51:49.878Z,10.54
2023-03-13T05:52:52.773Z,8.70
2023-03-13T05:53:54.671Z,9.19
2023-03-13T05:54:56.542Z,8.72
2023-03-13T05:55:58.479Z,10.36
2023-03-13T05:57:00.865Z,11.69
2023-03-13T05:58:02.974Z,10.70
2023-03-13T05:59:04.841Z,10.62
2023-03-13T06:00:09.781Z,10.65
2023-03-13T06:01:14.304Z,15.73
2023-03-13T06:02:16.266Z,7.91
2023-03-13T06:03:18.197Z,11.18
2023-03-13T06:04:20.574Z,13.77
2023-03-13T06:05:22.805Z,8.11
2023-03-13T06:06:24.865Z,10.32
2023-03-13T06:07:26.733Z,10.31
2023-03-13T06:08:29.069Z,9.65
2023-03-13T06:09:31.592Z,13.94
2023-03-13T06:10:33.874Z,10.51
2023-03-13T06:11:35.756Z,11.03
2023-03-13T06:12:38.420Z,11.94
2023-03-13T06:13:40.404Z,10.95
2023-03-13T06:14:42.481Z,8.98
2023-03-13T06:15:53.311Z,14.82
2023-03-13T06:16:56.259Z,18.53
2023-03-13T06:17:58.148Z,26.34
2023-03-13T06:19:00.142Z,33.23
2023-03-13T06:20:03.441Z,27.93
2023-03-13T06:21:05.647Z,31.11
2023-03-13T06:22:08.027Z,31.15
2023-03-13T06:23:10.312Z,29.19
2023-03-13T06:24:12.194Z,29.04
2023-03-13T06:25:14.650Z,22.87
2023-03-13T06:26:16.867Z,21.80
2023-03-13T06:27:18.856Z,23.26
2023-03-13T06:28:21.631Z,28.75
2023-03-13T06:29:23.768Z,30.25
2023-03-13T06:30:25.751Z,30.74
2023-03-13T06:31:27.835Z,22.86
2023-03-13T06:32:31.773Z,21.48
2023-03-13T06:33:34.227Z,26.55
2023-03-13T06:34:37.869Z,27.14
2023-03-13T06:35:55.311Z,34.06
2023-03-13T06:36:45.757Z,30.29
2023-03-13T06:37:47.752Z,56.27
2023-03-13T06:38:51.554Z,59.81
2023-03-13T06:39:53.624Z,49.98
2023-03-13T06:40:55.933Z,56.54
2023-03-13T06:41:58.428Z,51.53
2023-03-13T06:43:00.711Z,41.85
2023-03-13T06:44:03.454Z,37.49
2023-03-13T06:45:06.720Z,23.73
2023-03-13T06:46:18.139Z,30.54
2023-03-13T06:47:21.383Z,25.95
2023-03-13T06:48:23.413Z,32.17
2023-03-13T06:49:25.481Z,23.56
2023-03-13T06:50:28.046Z,18.33
2023-03-13T06:51:30.254Z,21.21
2023-03-13T06:52:43.181Z,18.33
2023-03-13T06:53:35.990Z,16.42
2023-03-13T06:54:37.893Z,16.45
2023-03-13T06:55:39.792Z,13.30
2023-03-13T06:56:42.144Z,15.34
2023-03-13T06:57:44.138Z,19.93
2023-03-13T06:58:47.395Z,38.08
2023-03-13T06:59:49.462Z,41.94
2023-03-13T07:00:51.516Z,31.41
2023-03-13T07:01:56.678Z,12.55
2023-03-13T07:02:58.764Z,11.19
2023-03-13T07:04:00.884Z,10.29
2023-03-13T07:05:03.967Z,9.69
2023-03-13T07:06:07.777Z,9.64
2023-03-13T07:07:13.193Z,12.16
2023-03-13T07:08:13.512Z,8.37
2023-03-13T07:09:16.780Z,10.11
2023-03-13T07:10:19.215Z,7.99
2023-03-13T07:11:21.497Z,9.90
2023-03-13T07:12:23.395Z,9.46
2023-03-13T07:13:26.317Z,9.73
2023-03-13T07:14:28.738Z,10.89
2023-03-13T07:15:31.981Z,10.18
2023-03-13T07:16:34.231Z,12.48
2023-03-13T07:17:36.961Z,9.93
2023-03-13T07:18:40.274Z,8.32
2023-03-13T07:19:42.709Z,8.30
2023-03-13T07:20:47.398Z,11.22
2023-03-13T07:21:49.316Z,9.24
2023-03-13T07:22:52.978Z,11.21
2023-03-13T07:23:55.017Z,9.31
2023-03-13T07:24:57.046Z,10.29
2023-03-13T07:26:01.934Z,10.25
2023-03-13T07:27:07.516Z,12.36
2023-03-13T07:28:07.740Z,9.16
2023-03-13T07:29:09.928Z,9.67
2023-03-13T07:30:14.020Z,11.02
2023-03-13T07:31:20.537Z,11.45
2023-03-13T07:32:22.811Z,10.77
2023-03-13T07:33:24.831Z,11.33
2023-03-13T07:34:26.725Z,8.98
2023-03-13T07:35:28.960Z,11.14
2023-03-13T07:36:31.039Z,9.91
2023-03-13T07:37:33.157Z,12.27
2023-03-13T07:38:35.131Z,8.80
2023-03-13T07:39:37.084Z,10.32
2023-03-13T07:40:39.310Z,11.61
2023-03-13T07:41:41.350Z,9.55
2023-03-13T07:42:43.251Z,7.55
2023-03-13T07:43:46.794Z,11.28
2023-03-13T07:44:48.759Z,7.94
2023-03-13T07:45:57.242Z,6.39
2023-03-13T07:47:00.684Z,8.34
2023-03-13T07:48:02.858Z,8.71
2023-03-13T07:49:04.823Z,9.83
2023-03-13T07:50:08.728Z,8.78
2023-03-13T07:51:17.312Z,8.00
2023-03-13T07:52:19.420Z,5.95
2023-03-13T07:53:23.034Z,6.32
2023-03-13T07:54:25.484Z,9.08
2023-03-13T07:55:27.444Z,9.24
2023-03-13T07:56:29.427Z,7.34
2023-03-13T07:57:31.309Z,9.43
2023-03-13T07:58:35.751Z,24.33
2023-03-13T07:59:37.749Z,6.16
2023-03-13T08:00:39.733Z,5.23
2023-03-13T08:01:41.970Z,10.28
2023-03-13T08:02:43.941Z,8.19
2023-03-13T08:03:46.628Z,7.26
2023-03-13T08:07:09.380Z,7.47
2023-03-13T08:08:11.471Z,10.17
2023-03-13T08:09:14.765Z,10.41
2023-03-13T08:10:17.053Z,11.23
2023-03-13T08:11:21.368Z,8.04
2023-03-13T08:12:23.327Z,7.79
2023-03-13T08:13:25.203Z,6.81
2023-03-13T08:14:27.286Z,6.45
2023-03-13T08:15:29.588Z,7.51
2023-03-13T08:16:33.668Z,7.71
2023-03-13T08:17:35.833Z,7.04
2023-03-13T08:18:40.617Z,9.17
2023-03-13T08:19:42.567Z,7.93
2023-03-13T08:20:45.713Z,9.19
2023-03-13T08:21:47.767Z,9.53
2023-03-13T08:22:52.123Z,8.65
2023-03-13T08:23:56.522Z,7.77
2023-03-13T08:24:58.458Z,8.74
2023-03-13T08:26:11.997Z,7.90
2023-03-13T08:27:13.950Z,10.18
2023-03-13T08:28:15.801Z,7.57
2023-03-13T08:29:18.963Z,8.07
2023-03-13T08:30:21.361Z,5.91
2023-03-13T08:33:42.547Z,8.81
2023-03-13T08:34:44.740Z,7.51
2023-03-13T08:35:47.658Z,7.09
2023-03-13T08:36:49.835Z,7.46
2023-03-13T08:37:51.791Z,7.45
2023-03-13T08:38:55.213Z,7.31
2023-03-13T08:39:57.143Z,6.07
2023-03-13T08:40:59.136Z,7.18
2023-03-13T08:42:01.013Z,5.97
2023-03-13T08:43:02.959Z,7.67
2023-03-13T08:44:05.343Z,6.53
2023-03-13T08:45:08.999Z,8.37
2023-03-13T08:46:11.526Z,8.79
2023-03-13T08:47:14.007Z,10.51
2023-03-13T08:48:16.561Z,7.28
2023-03-13T08:49:18.484Z,7.95
2023-03-13T08:50:20.460Z,6.99
2023-03-13T08:51:25.018Z,6.88
2023-03-13T08:52:27.045Z,7.24
2023-03-13T08:53:30.401Z,5.35
2023-03-13T08:54:33.803Z,6.25
2023-03-13T08:55:35.772Z,7.37
2023-03-13T08:56:38.153Z,6.77
2023-03-13T08:57:40.090Z,10.10
2023-03-13T08:58:47.616Z,8.15
2023-03-13T08:59:51.345Z,7.62
2023-03-13T09:00:55.856Z,8.66
2023-03-13T09:01:59.604Z,6.22
2023-03-13T09:03:02.754Z,9.01
2023-03-13T09:04:08.513Z,9.76
2023-03-13T09:05:10.578Z,7.37
2023-03-13T09:06:13.898Z,7.72
2023-03-13T09:07:15.808Z,7.36
2023-03-13T09:08:17.683Z,6.87
2023-03-13T09:09:19.602Z,8.43
2023-03-13T09:10:21.572Z,9.28
2023-03-13T09:11:24.106Z,10.14
2023-03-13T09:12:31.196Z,10.62
2023-03-13T09:13:33.660Z,7.85
2023-03-13T09:14:36.784Z,10.34
2023-03-13T09:15:38.954Z,9.56
2023-03-13T09:16:40.921Z,9.54
2023-03-13T09:17:42.784Z,7.87
2023-03-13T09:18:45.822Z,5.89
2023-03-13T09:19:59.719Z,7.93
2023-03-13T09:20:52.425Z,8.01
2023-03-13T09:21:54.407Z,8.47
2023-03-13T09:22:56.304Z,8.55
2023-03-13T09:23:59.120Z,7.83
2023-03-13T09:25:01.028Z,9.68
2023-03-13T09:26:04.780Z,12.78
2023-03-13T09:27:06.690Z,11.94
2023-03-13T09:28:09.456Z,11.03
2023-03-13T09:29:11.684Z,10.58
2023-03-13T09:30:14.780Z,12.91
2023-03-13T09:31:19.773Z,10.01
2023-03-13T09:32:22.053Z,12.39
2023-03-13T09:33:24.078Z,8.23
2023-03-13T09:34:26.097Z,11.51
2023-03-13T09:35:28.267Z,11.66
2023-03-13T09:36:30.433Z,7.53
2023-03-13T09:37:32.363Z,8.75
2023-03-13T09:38:35.146Z,6.95
2023-03-13T09:39:37.261Z,8.86
2023-03-13T09:40:56.470Z,8.55
2023-03-13T09:41:52.609Z,6.44
2023-03-13T09:42:58.036Z,8.48
2023-03-13T09:44:03.747Z,8.70
2023-03-13T09:45:09.503Z,5.29
2023-03-13T09:46:27.653Z,7.64
2023-03-13T09:47:39.996Z,8.69
2023-03-13T09:48:51.465Z,9.36
2023-03-13T09:51:25.223Z,7.43
2023-03-13T09:52:36.614Z,5.46
2023-03-13T09:53:48.325Z,10.07
2023-03-13T09:55:02.783Z,6.66
2023-03-13T09:56:08.767Z,6.93
2023-03-13T09:57:26.490Z,6.34
2023-03-13T09:58:31.311Z,8.94
2023-03-13T09:59:43.240Z,6.70
2023-03-13T10:00:49.221Z,7.37
2023-03-13T10:01:54.795Z,8.68
2023-03-13T10:03:12.597Z,7.53
2023-03-13T10:04:21.303Z,8.74
2023-03-13T10:05:29.014Z,6.83
2023-03-13T10:06:37.868Z,7.78
2023-03-13T10:07:40.440Z,10.66
2023-03-13T10:08:42.396Z,8.13
2023-03-13T10:09:44.447Z,7.12
2023-03-13T10:11:02.198Z,9.33
2023-03-13T10:12:14.870Z,7.50
2023-03-13T10:14:41.329Z,7.86
2023-03-13T10:15:55.719Z,7.65
2023-03-13T10:17:07.383Z,7.66
2023-03-13T10:19:28.647Z,7.85
2023-03-13T10:20:36.365Z,9.88
2023-03-13T10:21:41.050Z,8.19
2023-03-13T10:22:46.744Z,10.39
2023-03-13T10:23:55.217Z,9.07
2023-03-13T10:25:09.880Z,6.76
2023-03-13T10:26:18.449Z,9.11
2023-03-13T10:27:20.524Z,8.78
2023-03-13T10:28:22.705Z,9.47
2023-03-13T10:29:27.258Z,6.96
2023-03-13T10:30:34.411Z,11.75
2023-03-13T10:31:37.958Z,7.14
2023-03-13T10:32:40.977Z,8.93
2023-03-13T10:33:43.962Z,8.64
2023-03-13T10:34:55.405Z,8.68
2023-03-13T10:37:18.940Z,7.67
2023-03-13T10:38:23.494Z,6.10
2023-03-13T10:39:28.418Z,8.23
2023-03-13T10:40:30.617Z,5.47
2023-03-13T10:41:37.423Z,7.43
2023-03-13T10:42:45.168Z,6.67
2023-03-13T10:45:05.375Z,5.25
2023-03-13T10:46:09.734Z,7.08
2023-03-13T10:47:14.365Z,9.51
2023-03-13T10:48:24.273Z,5.84
2023-03-13T10:49:26.986Z,8.12
2023-03-13T10:50:34.188Z,8.48
2023-03-13T10:51:38.859Z,6.75
2023-03-13T10:52:46.073Z,5.41
2023-03-13T10:53:48.543Z,8.41
2023-03-13T10:54:52.368Z,7.46
2023-03-13T10:56:00.220Z,6.81
2023-03-13T10:57:11.885Z,6.74
2023-03-13T10:58:29.374Z,7.41
2023-03-13T10:59:32.391Z,6.38
2023-03-13T11:00:37.607Z,8.10
2023-03-13T11:01:42.726Z,9.53
2023-03-13T11:02:45.617Z,7.97
2023-03-13T11:03:49.966Z,9.58
2023-03-13T11:04:53.228Z,7.63
2023-03-13T11:06:01.472Z,6.10
2023-03-13T11:07:16.184Z,7.06
2023-03-13T11:08:22.049Z,6.86
2023-03-13T11:09:24.242Z,8.69
2023-03-13T11:10:29.144Z,9.10
2023-03-13T11:11:34.857Z,7.12
2023-03-13T11:12:40.515Z,9.49
2023-03-13T11:13:44.003Z,5.88
2023-03-13T11:14:46.224Z,6.42
2023-03-13T11:15:54.938Z,6.92
2023-03-13T11:17:22.258Z,8.50
2023-03-13T11:18:30.941Z,9.98
2023-03-13T11:19:48.955Z,7.69
2023-03-13T11:20:51.674Z,7.81
2023-03-13T11:22:09.330Z,7.41
2023-03-13T11:23:21.033Z,7.12
2023-03-13T11:25:45.077Z,9.02
2023-03-13T11:28:05.986Z,7.02
2023-03-13T11:29:14.891Z,7.29
2023-03-13T11:30:22.396Z,12.23
2023-03-13T11:31:37.464Z,8.33
2023-03-13T11:32:48.817Z,7.09
2023-03-13T11:34:01.060Z,7.67
2023-03-13T11:35:06.967Z,8.05
2023-03-13T11:36:16.328Z,7.38
2023-03-13T11:37:21.639Z,9.03
2023-03-13T11:38:36.039Z,6.99
2023-03-13T11:40:13.714Z,10.29
2023-03-13T11:41:40.667Z,8.74
2023-03-13T11:42:58.615Z,5.24
2023-03-13T11:44:19.370Z,6.79
2023-03-13T11:45:58.740Z,7.83
2023-03-13T11:47:26.482Z,10.00
2023-03-13T11:48:50.442Z,6.83
2023-03-13T11:50:16.658Z,8.80
2023-03-13T11:51:25.558Z,7.40
2023-03-13T11:53:05.141Z,7.38
2023-03-13T11:54:43.554Z,7.07
2023-03-13T11:55:52.299Z,8.97
2023-03-13T11:58:26.249Z,6.11
2023-03-13T11:59:44.691Z,5.87
2023-03-13T12:01:08.913Z,7.59
2023-03-13T12:02:30.183Z,7.34
2023-03-13T12:03:55.968Z,8.01
2023-03-13T12:05:01.938Z,4.81
2023-03-13T12:06:13.272Z,7.78
2023-03-13T12:07:18.185Z,7.78
2023-03-13T12:08:42.290Z,7.26
2023-03-13T12:09:50.075Z,5.46
2023-03-13T12:11:12.712Z,5.74
2023-03-13T12:12:35.263Z,5.42
2023-03-13T12:13:41.302Z,4.52
2023-03-13T12:17:10.052Z,3.90
2023-03-13T12:18:30.883Z,7.68
2023-03-13T12:19:42.580Z,4.95
2023-03-13T12:20:57.974Z,6.61
2023-03-13T12:22:03.737Z,6.66
2023-03-13T12:23:21.588Z,7.78
2023-03-13T12:24:39.288Z,6.17
2023-03-13T12:25:53.623Z,7.62
2023-03-13T12:30:00.783Z,8.01
2023-03-13T12:31:08.922Z,10.42
2023-03-13T12:33:33.731Z,6.29
2023-03-13T12:34:51.712Z,5.21
2023-03-13T12:36:00.416Z,5.92
2023-03-13T12:37:33.089Z,5.91
2023-03-13T12:38:52.022Z,4.52
2023-03-13T12:40:17.610Z,4.53
2023-03-13T12:41:35.068Z,6.41
2023-03-13T12:42:48.689Z,6.13
2023-03-13T12:44:09.254Z,6.83
2023-03-13T12:44:59.167Z,5.99
2023-03-13T12:46:31.590Z,6.43
2023-03-13T12:48:58.226Z,4.77
2023-03-13T12:50:22.011Z,6.17
2023-03-13T12:51:44.458Z,6.18
2023-03-13T12:53:21.045Z,4.82
2023-03-13T12:57:44.705Z,5.43
2023-03-13T12:58:53.546Z,6.52
2023-03-13T13:00:01.463Z,4.39
2023-03-13T13:01:06.229Z,16.64
2023-03-13T13:02:14.958Z,9.72
2023-03-13T13:03:23.420Z,4.40
2023-03-13T13:04:35.068Z,6.23
2023-03-13T13:05:37.570Z,5.83
2023-03-13T13:06:55.631Z,6.15
2023-03-13T13:07:57.893Z,7.29
2023-03-13T13:09:09.403Z,4.31
2023-03-13T13:10:15.312Z,8.04
2023-03-13T13:11:40.728Z,6.91
2023-03-13T13:12:50.523Z,7.21
2023-03-13T13:13:52.579Z,8.32
2023-03-13T13:15:01.205Z,7.70
2023-03-13T13:16:10.282Z,6.81
2023-03-13T13:17:19.110Z,6.29
2023-03-13T13:18:27.484Z,6.61
2023-03-13T13:19:44.687Z,7.12
2023-03-13T13:20:48.754Z,7.21
2023-03-13T13:22:29.129Z,5.53
2023-03-13T13:23:43.060Z,6.28
2023-03-13T13:24:50.796Z,7.30
2023-03-13T13:25:56.475Z,5.79
2023-03-13T13:27:00.765Z,7.70
2023-03-13T13:28:18.231Z,6.25
2023-03-13T13:29:23.924Z,5.21
2023-03-13T13:30:32.261Z,4.71
2023-03-13T13:31:50.479Z,3.84
2023-03-13T13:32:58.155Z,6.95
2023-03-13T13:34:00.451Z,5.91
2023-03-13T13:35:05.653Z,4.45
2023-03-13T13:36:12.551Z,5.28
2023-03-13T13:37:21.951Z,6.53
2023-03-13T13:38:29.866Z,5.96
2023-03-13T13:39:38.568Z,7.46
2023-03-13T13:41:02.824Z,6.18
2023-03-13T13:42:31.629Z,6.53
2023-03-13T13:43:41.489Z,5.99
2023-03-13T13:45:01.084Z,6.47
2023-03-13T13:46:32.586Z,6.10
2023-03-13T13:47:34.977Z,6.45
2023-03-13T13:48:37.885Z,4.69
2023-03-13T13:52:09.382Z,4.79
2023-03-13T13:53:29.626Z,6.03
2023-03-13T13:54:47.595Z,5.65
2023-03-13T13:55:49.831Z,4.76
2023-03-13T13:59:44.970Z,5.51
2023-03-13T14:01:02.665Z,9.74
2023-03-13T14:02:10.165Z,5.56
2023-03-13T14:03:22.431Z,7.28
2023-03-13T14:04:31.117Z,8.13
2023-03-13T14:05:34.553Z,6.97
2023-03-13T14:06:38.832Z,6.05
2023-03-13T14:07:44.538Z,5.96
2023-03-13T14:08:50.056Z,4.48
2023-03-13T14:09:59.520Z,4.42
2023-03-13T14:11:17.539Z,4.46
2023-03-13T14:12:35.099Z,5.99
2023-03-13T14:13:37.136Z,6.47
2023-03-13T14:14:39.049Z,7.93
2023-03-13T14:15:43.877Z,8.93
2023-03-13T14:16:49.416Z,8.74
2023-03-13T14:17:57.306Z,4.85
2023-03-13T14:18:59.235Z,6.53
2023-03-13T14:20:01.845Z,6.16
2023-03-13T14:21:06.553Z,7.15
2023-03-13T14:22:11.245Z,4.36
2023-03-13T14:23:14.051Z,5.37
2023-03-13T14:24:16.539Z,7.33
2023-03-13T14:25:20.462Z,4.58
2023-03-13T14:26:25.742Z,5.87
2023-03-13T14:27:27.800Z,8.71
2023-03-13T14:28:30.963Z,5.23
2023-03-13T14:29:32.883Z,4.56
2023-03-13T14:30:38.714Z,5.49
2023-03-13T14:31:41.529Z,5.05
2023-03-13T14:32:44.811Z,5.41
2023-03-13T14:33:47.547Z,8.76
2023-03-13T14:34:49.705Z,7.16
2023-03-13T14:35:52.217Z,6.79
2023-03-13T14:37:14.919Z,5.11
2023-03-13T14:38:03.223Z,4.83
2023-03-13T14:39:05.113Z,8.28
2023-03-13T14:40:09.319Z,5.02
2023-03-13T14:41:31.669Z,8.81
2023-03-13T14:42:43.007Z,8.04
2023-03-13T14:44:48.237Z,5.95
2023-03-13T14:45:50.832Z,5.37
2023-03-13T14:46:58.738Z,4.90
2023-03-13T14:48:27.473Z,7.55
2023-03-13T14:49:29.819Z,8.97
2023-03-13T14:50:33.888Z,7.15
2023-03-13T14:51:38.800Z,5.99
2023-03-13T14:52:47.464Z,7.43
2023-03-13T14:53:58.321Z,7.41
2023-03-13T14:55:22.038Z,6.55
2023-03-13T14:56:33.587Z,6.91
2023-03-13T14:57:35.729Z,4.98